Apple Grove, North Carolina
Current Conditions -  °F | °C
As of 12:55 PM on Saturday 22 Nov 2014 (Local Time) from KGEV Reporting Station
Clear Clear  
Wind Chill: 42°   Ceiling: Unl
Heat Index: 45°   Visibility: 10mi
Dew Point: 12°   Wind: 6mph
Humidity: 26%   Direction: 130°SE
Pressure: 30.35"   Gusts: NA
Location:  36.524°N, 81.538°W
Report Text: KGEV 221755Z AUTO 13005KT 10SM CLR 07/M11 A3035 RMK AO2 T00741110 10074 21028
Loading
Personal Weather Stations






























Interactive Weather Map New forecast layout! Learn more

10-Day Weather Forecast

Advertisements
Track Severe Weather on mobile